createdAt,value
2018-01-15T00:00:14.667Z,0.00
2018-01-15T00:01:14.681Z,0.00
2018-01-15T00:02:14.690Z,0.00
2018-01-15T00:03:14.704Z,0.00
2018-01-15T00:04:14.714Z,0.00
2018-01-15T00:05:14.726Z,0.00
2018-01-15T00:06:14.738Z,0.00
2018-01-15T00:07:14.746Z,0.00
2018-01-15T00:08:14.770Z,0.00
2018-01-15T00:09:14.769Z,0.00
2018-01-15T00:10:14.777Z,0.00
2018-01-15T00:11:14.800Z,0.00
2018-01-15T00:12:14.803Z,0.00
2018-01-15T00:13:14.810Z,0.00
2018-01-15T00:14:14.824Z,0.00
2018-01-15T00:15:14.898Z,0.00
2018-01-15T00:16:14.847Z,0.00
2018-01-15T00:17:14.861Z,0.00
2018-01-15T00:18:14.874Z,0.00
2018-01-15T00:19:14.877Z,0.00
2018-01-15T00:20:14.889Z,0.00
2018-01-15T00:21:14.902Z,0.00
2018-01-15T00:22:14.913Z,0.00
2018-01-15T00:23:14.929Z,0.00
2018-01-15T00:24:14.933Z,0.00
2018-01-15T00:25:14.941Z,0.00
2018-01-15T00:26:14.953Z,0.00
2018-01-15T00:27:14.967Z,0.00
2018-01-15T00:28:14.991Z,0.00
2018-01-15T00:29:14.992Z,0.00
2018-01-15T00:30:15.010Z,0.00
2018-01-15T00:31:15.018Z,0.00
2018-01-15T00:32:15.020Z,0.00
2018-01-15T00:33:15.038Z,0.00
2018-01-15T00:34:15.044Z,0.00
2018-01-15T00:35:15.064Z,0.00
2018-01-15T00:36:15.066Z,0.00
2018-01-15T00:37:15.079Z,0.00
2018-01-15T00:38:15.087Z,0.00
2018-01-15T00:39:15.157Z,0.00
2018-01-15T00:40:15.107Z,0.00
2018-01-15T00:41:15.121Z,0.00
2018-01-15T00:42:15.131Z,0.00
2018-01-15T00:43:15.143Z,0.00
2018-01-15T00:44:15.152Z,0.00
2018-01-15T00:45:15.160Z,0.00
2018-01-15T00:46:15.181Z,0.00
2018-01-15T00:47:15.185Z,0.00
2018-01-15T00:48:15.197Z,0.00
2018-01-15T00:49:15.208Z,0.00
2018-01-15T00:50:15.230Z,0.00
2018-01-15T00:51:15.230Z,0.00
2018-01-15T00:52:15.242Z,0.00
2018-01-15T00:53:15.381Z,0.00
2018-01-15T00:54:15.265Z,0.00
2018-01-15T00:55:15.271Z,0.00
2018-01-15T00:56:15.288Z,0.00
2018-01-15T00:57:15.295Z,0.00
2018-01-15T00:58:15.306Z,0.00
2018-01-15T00:59:15.325Z,0.00
2018-01-15T01:00:15.328Z,0.00
2018-01-15T01:01:15.338Z,0.00
2018-01-15T01:02:15.349Z,0.00
2018-01-15T01:03:15.365Z,0.00
2018-01-15T01:04:15.373Z,0.00
2018-01-15T01:05:15.393Z,0.00
2018-01-15T01:06:15.395Z,0.00
2018-01-15T01:07:15.404Z,0.00
2018-01-15T01:08:15.413Z,0.00
2018-01-15T01:09:15.433Z,0.00
2018-01-15T01:10:15.436Z,0.00
2018-01-15T01:11:15.452Z,0.00
2018-01-15T01:12:15.463Z,0.00
2018-01-15T01:13:15.471Z,0.00
2018-01-15T01:14:15.482Z,0.00
2018-01-15T01:15:15.493Z,0.00
2018-01-15T01:16:15.503Z,0.00
2018-01-15T01:17:15.513Z,0.00
2018-01-15T01:18:15.525Z,0.00
2018-01-15T01:19:15.534Z,0.00
2018-01-15T01:20:15.557Z,0.00
2018-01-15T01:21:15.556Z,0.00
2018-01-15T01:22:15.578Z,0.00
2018-01-15T01:23:15.577Z,0.00
2018-01-15T01:24:15.591Z,0.00
2018-01-15T01:25:15.602Z,0.00
2018-01-15T01:26:15.647Z,0.00
2018-01-15T01:27:15.628Z,0.00
2018-01-15T01:28:15.637Z,0.00
2018-01-15T01:29:15.646Z,0.00
2018-01-15T01:30:15.657Z,0.00
2018-01-15T01:31:15.672Z,0.00
2018-01-15T01:32:15.679Z,0.00
2018-01-15T01:33:15.697Z,0.00
2018-01-15T01:34:15.703Z,0.00
2018-01-15T01:35:15.717Z,0.00
2018-01-15T01:36:15.722Z,0.00
2018-01-15T01:37:15.731Z,0.00
2018-01-15T01:38:15.747Z,0.00
2018-01-15T01:39:15.755Z,0.00
2018-01-15T01:40:15.764Z,0.00
2018-01-15T01:41:15.784Z,0.00
2018-01-15T01:42:15.790Z,0.00
2018-01-15T01:43:15.803Z,0.00
2018-01-15T01:44:15.807Z,0.00
2018-01-15T01:45:15.818Z,0.00
2018-01-15T01:46:15.832Z,0.00
2018-01-15T01:47:15.842Z,0.00
2018-01-15T01:48:15.853Z,0.00
2018-01-15T01:49:15.870Z,0.00
2018-01-15T01:50:15.874Z,0.00
2018-01-15T01:51:15.884Z,0.00
2018-01-15T01:52:15.895Z,0.00
2018-01-15T01:53:15.907Z,0.00
2018-01-15T01:54:15.916Z,0.00
2018-01-15T01:55:15.931Z,0.00
2018-01-15T01:56:15.942Z,0.00
2018-01-15T01:57:15.952Z,0.00
2018-01-15T01:58:15.966Z,0.00
2018-01-15T01:59:15.975Z,0.00
2018-01-15T02:00:15.991Z,0.00
2018-01-15T02:01:15.996Z,0.00
2018-01-15T02:02:16.005Z,0.00
2018-01-15T02:03:16.018Z,0.00
2018-01-15T02:04:16.028Z,0.00
2018-01-15T02:05:16.037Z,0.00
2018-01-15T02:06:16.051Z,0.00
2018-01-15T02:07:16.062Z,0.00
2018-01-15T02:08:16.075Z,0.00
2018-01-15T02:09:16.083Z,0.00
2018-01-15T02:10:16.092Z,0.00
2018-01-15T02:11:16.103Z,0.00
2018-01-15T02:12:16.119Z,0.00
2018-01-15T02:13:16.123Z,0.00
2018-01-15T02:14:16.137Z,0.00
2018-01-15T02:15:16.148Z,0.00
2018-01-15T02:16:16.158Z,0.00
2018-01-15T02:17:16.174Z,0.00
2018-01-15T02:18:16.176Z,0.00
2018-01-15T02:19:16.190Z,0.00
2018-01-15T02:20:16.207Z,0.00
2018-01-15T02:21:16.210Z,0.00
2018-01-15T02:22:16.222Z,0.00
2018-01-15T02:23:16.245Z,0.00
2018-01-15T02:24:16.259Z,0.00
2018-01-15T02:25:16.260Z,0.00
2018-01-15T02:26:16.266Z,0.00
2018-01-15T02:27:16.274Z,0.00
2018-01-15T02:28:16.289Z,0.00
2018-01-15T02:29:16.298Z,0.00
2018-01-15T02:30:16.307Z,0.00
2018-01-15T02:31:16.319Z,0.00
2018-01-15T02:32:16.331Z,0.00
2018-01-15T02:33:16.340Z,0.00
2018-01-15T02:34:16.368Z,0.00
2018-01-15T02:35:16.379Z,0.00
2018-01-15T02:36:16.373Z,0.00
2018-01-15T02:37:16.381Z,0.00
2018-01-15T02:38:16.397Z,0.00
2018-01-15T02:39:16.402Z,0.00
2018-01-15T02:40:16.416Z,0.00
2018-01-15T02:41:16.426Z,0.00
2018-01-15T02:42:16.441Z,0.00
2018-01-15T02:43:16.448Z,0.00
2018-01-15T02:44:16.468Z,0.00
2018-01-15T02:45:16.468Z,0.00
2018-01-15T02:46:16.486Z,0.00
2018-01-15T02:47:16.492Z,0.00
2018-01-15T02:48:16.521Z,0.00
2018-01-15T02:49:16.513Z,0.00
2018-01-15T02:50:16.577Z,0.00
2018-01-15T02:51:16.532Z,0.00
2018-01-15T02:52:16.547Z,0.00
2018-01-15T02:53:16.553Z,0.00
2018-01-15T02:54:16.564Z,0.00
2018-01-15T02:55:16.574Z,0.00
2018-01-15T02:56:16.589Z,0.00
2018-01-15T02:57:16.597Z,0.00
2018-01-15T02:58:16.610Z,0.00
2018-01-15T02:59:16.623Z,0.00
2018-01-15T03:00:16.631Z,0.00
2018-01-15T03:01:16.641Z,0.00
2018-01-15T03:02:16.651Z,0.00
2018-01-15T03:03:16.670Z,0.00
2018-01-15T03:04:16.673Z,0.00
2018-01-15T03:05:16.683Z,0.00
2018-01-15T03:06:16.697Z,0.00
2018-01-15T03:07:16.707Z,0.00
2018-01-15T03:08:16.718Z,0.00
2018-01-15T03:09:16.724Z,0.00
2018-01-15T03:10:16.744Z,0.00
2018-01-15T03:11:16.749Z,0.00
2018-01-15T03:12:16.761Z,0.00
2018-01-15T03:13:16.776Z,0.00
2018-01-15T03:14:16.786Z,0.00
2018-01-15T03:15:16.796Z,0.00
2018-01-15T03:16:16.819Z,0.00
2018-01-15T03:17:16.824Z,0.00
2018-01-15T03:18:16.829Z,0.00
2018-01-15T03:19:16.835Z,0.00
2018-01-15T03:20:16.848Z,0.00
2018-01-15T03:21:16.857Z,0.00
2018-01-15T03:22:16.867Z,0.00
2018-01-15T03:23:16.882Z,0.00
2018-01-15T03:24:16.893Z,0.00
2018-01-15T03:25:16.903Z,0.00
2018-01-15T03:26:16.912Z,0.00
2018-01-15T03:27:16.923Z,0.00
2018-01-15T03:28:16.937Z,0.00
2018-01-15T03:29:17.129Z,0.00
2018-01-15T03:30:16.956Z,0.00
2018-01-15T03:31:16.968Z,0.00
2018-01-15T03:32:16.978Z,0.00
2018-01-15T03:33:16.987Z,0.00
2018-01-15T03:34:17.000Z,0.00
2018-01-15T03:35:17.008Z,0.00
2018-01-15T03:36:17.023Z,0.00
2018-01-15T03:37:17.032Z,0.00
2018-01-15T03:38:17.038Z,0.00
2018-01-15T03:39:17.053Z,0.00
2018-01-15T03:40:17.062Z,0.00
2018-01-15T03:41:17.080Z,0.00
2018-01-15T03:42:17.083Z,0.00
2018-01-15T03:43:17.096Z,0.00
2018-01-15T03:44:17.104Z,0.00
2018-01-15T03:45:17.119Z,0.00
2018-01-15T03:46:17.127Z,0.00
2018-01-15T03:47:17.139Z,0.00
2018-01-15T03:48:17.158Z,0.00
2018-01-15T03:49:17.157Z,0.00
2018-01-15T03:50:17.171Z,0.00
2018-01-15T03:51:17.178Z,0.00
2018-01-15T03:52:17.198Z,0.00
2018-01-15T03:53:17.203Z,0.00
2018-01-15T03:54:17.216Z,0.00
2018-01-15T03:55:17.222Z,0.00
2018-01-15T03:56:17.234Z,0.00
2018-01-15T03:57:17.243Z,0.00
2018-01-15T03:58:17.258Z,0.00
2018-01-15T03:59:17.270Z,0.00
2018-01-15T04:00:17.281Z,0.00
2018-01-15T04:01:17.288Z,0.00
2018-01-15T04:02:17.299Z,0.00
2018-01-15T04:03:17.308Z,0.00
2018-01-15T04:04:17.323Z,0.00
2018-01-15T04:05:17.336Z,0.00
2018-01-15T04:06:17.347Z,0.00
2018-01-15T04:07:17.351Z,0.00
2018-01-15T04:08:17.364Z,0.00
2018-01-15T04:09:17.371Z,0.00
2018-01-15T04:10:17.383Z,0.00
2018-01-15T04:11:17.396Z,0.00
2018-01-15T04:12:17.412Z,0.00
2018-01-15T04:13:17.428Z,0.00
2018-01-15T04:14:17.429Z,0.00
2018-01-15T04:15:17.442Z,0.00
2018-01-15T04:16:17.451Z,0.00
2018-01-15T04:17:17.456Z,0.00
2018-01-15T04:18:17.470Z,0.00
2018-01-15T04:19:17.478Z,0.00
2018-01-15T04:20:17.488Z,0.00
2018-01-15T04:21:17.503Z,0.00
2018-01-15T04:22:17.512Z,0.00
2018-01-15T04:23:17.527Z,0.00
2018-01-15T04:24:17.540Z,0.00
2018-01-15T04:25:17.548Z,0.00
2018-01-15T04:26:17.557Z,0.00
2018-01-15T04:27:17.572Z,0.00
2018-01-15T04:28:17.580Z,0.00
2018-01-15T04:29:17.591Z,0.00
2018-01-15T04:30:17.598Z,0.00
2018-01-15T04:31:17.611Z,0.00
2018-01-15T04:32:17.627Z,0.00
2018-01-15T04:33:17.630Z,0.00
2018-01-15T04:34:17.642Z,0.00
2018-01-15T04:35:17.654Z,0.00
2018-01-15T04:36:17.668Z,0.00
2018-01-15T04:37:17.677Z,0.00
2018-01-15T04:38:17.688Z,0.00
2018-01-15T04:39:17.696Z,0.00
2018-01-15T04:40:17.719Z,0.00
2018-01-15T04:41:17.716Z,0.00
2018-01-15T04:42:17.735Z,0.00
2018-01-15T04:43:17.741Z,0.00
2018-01-15T04:44:17.751Z,0.00
2018-01-15T04:45:17.761Z,0.00
2018-01-15T04:46:17.782Z,0.00
2018-01-15T04:47:17.787Z,0.00
2018-01-15T04:48:17.793Z,0.00
2018-01-15T04:49:17.801Z,0.00
2018-01-15T04:50:17.816Z,0.00
2018-01-15T04:51:17.825Z,0.00
2018-01-15T04:52:17.841Z,0.00
2018-01-15T04:53:17.847Z,0.00
2018-01-15T04:54:17.857Z,0.00
2018-01-15T04:55:17.887Z,0.00
2018-01-15T04:56:17.882Z,0.00
2018-01-15T04:57:17.895Z,0.00
2018-01-15T04:58:17.908Z,0.00
2018-01-15T04:59:17.914Z,0.00
2018-01-15T05:00:17.926Z,0.00
2018-01-15T05:01:17.937Z,0.00
2018-01-15T05:02:17.946Z,0.00
2018-01-15T05:03:17.958Z,0.00
2018-01-15T05:04:17.972Z,0.00
2018-01-15T05:05:17.975Z,0.00
2018-01-15T05:06:17.986Z,0.00
2018-01-15T05:07:18.003Z,0.00
2018-01-15T05:08:18.016Z,0.00
2018-01-15T05:09:18.019Z,0.00
2018-01-15T05:10:18.031Z,0.00
2018-01-15T05:11:18.044Z,0.00
2018-01-15T05:12:18.055Z,0.00
2018-01-15T05:13:18.064Z,0.00
2018-01-15T05:14:18.076Z,0.00
2018-01-15T05:15:18.083Z,0.00
2018-01-15T05:16:18.097Z,0.00
2018-01-15T05:17:18.106Z,0.00
2018-01-15T05:18:18.126Z,0.00
2018-01-15T05:19:18.133Z,0.00
2018-01-15T05:20:18.140Z,0.00
2018-01-15T05:21:18.150Z,0.00
2018-01-15T05:22:18.158Z,0.00
2018-01-15T05:23:18.171Z,0.00
2018-01-15T05:24:18.183Z,0.00
2018-01-15T05:25:18.194Z,0.00
2018-01-15T05:26:18.203Z,0.00
2018-01-15T05:27:18.216Z,0.00
2018-01-15T05:28:18.223Z,0.00
2018-01-15T05:29:18.238Z,0.00
2018-01-15T05:30:18.264Z,0.00
2018-01-15T05:31:18.259Z,0.00
2018-01-15T05:32:18.266Z,0.00
2018-01-15T05:33:18.276Z,0.00
2018-01-15T05:34:18.288Z,0.00
2018-01-15T05:35:18.305Z,0.00
2018-01-15T05:36:18.314Z,0.00
2018-01-15T05:37:18.320Z,0.00
2018-01-15T05:38:18.333Z,0.00
2018-01-15T05:39:18.342Z,0.00
2018-01-15T05:40:18.359Z,0.00
2018-01-15T05:41:18.372Z,0.00
2018-01-15T05:42:18.378Z,4.00
2018-01-15T05:43:18.419Z,0.00
2018-01-15T05:44:18.398Z,0.00
2018-01-15T05:45:18.408Z,0.00
2018-01-15T05:46:18.422Z,0.00
2018-01-15T05:47:18.429Z,0.00
2018-01-15T05:48:18.443Z,0.00
2018-01-15T05:49:18.451Z,0.00
2018-01-15T05:50:18.465Z,0.00
2018-01-15T05:51:18.478Z,0.00
2018-01-15T05:52:18.485Z,0.00
2018-01-15T05:53:18.496Z,0.00
2018-01-15T05:54:18.507Z,0.00
2018-01-15T05:55:18.519Z,0.00
2018-01-15T05:56:18.535Z,0.00
2018-01-15T05:57:18.539Z,0.00
2018-01-15T05:58:18.552Z,0.00
2018-01-15T05:59:18.562Z,0.00
2018-01-15T06:00:18.576Z,0.00
2018-01-15T06:01:18.585Z,0.00
2018-01-15T06:02:18.594Z,0.00
2018-01-15T06:03:18.607Z,0.00
2018-01-15T06:04:18.619Z,0.00
2018-01-15T06:05:18.632Z,0.00
2018-01-15T06:06:18.643Z,0.00
2018-01-15T06:07:18.651Z,0.00
2018-01-15T06:08:18.670Z,0.00
2018-01-15T06:09:18.680Z,0.00
2018-01-15T06:10:18.689Z,0.00
2018-01-15T06:11:18.713Z,0.00
2018-01-15T06:12:18.708Z,0.00
2018-01-15T06:13:18.721Z,0.00
2018-01-15T06:14:18.733Z,0.00
2018-01-15T06:15:18.747Z,0.00
2018-01-15T06:16:18.755Z,0.00
2018-01-15T06:17:18.768Z,0.00
2018-01-15T06:18:18.785Z,0.00
2018-01-15T06:19:18.789Z,0.00
2018-01-15T06:20:18.802Z,0.00
2018-01-15T06:21:18.814Z,0.00
2018-01-15T06:22:18.823Z,0.00
2018-01-15T06:23:18.838Z,0.00
2018-01-15T06:24:18.858Z,0.00
2018-01-15T06:25:18.872Z,0.00
2018-01-15T06:26:18.872Z,0.00
2018-01-15T06:27:18.889Z,0.00
2018-01-15T06:28:18.895Z,0.00
2018-01-15T06:29:18.911Z,0.00
2018-01-15T06:30:18.917Z,0.00
2018-01-15T06:31:18.933Z,0.00
2018-01-15T06:32:18.942Z,0.00
2018-01-15T06:33:18.954Z,0.00
2018-01-15T06:34:18.964Z,0.00
2018-01-15T06:35:18.977Z,0.00
2018-01-15T06:36:18.989Z,0.00
2018-01-15T06:37:18.999Z,0.00
2018-01-15T06:38:19.010Z,0.00
2018-01-15T06:39:19.023Z,4.00
2018-01-15T06:40:19.032Z,4.00
2018-01-15T06:41:19.046Z,4.00
2018-01-15T06:42:19.058Z,4.00
2018-01-15T06:43:19.069Z,4.00
2018-01-15T06:44:19.083Z,0.00
2018-01-15T06:45:19.096Z,0.00
2018-01-15T06:46:19.101Z,0.00
2018-01-15T06:47:19.121Z,4.00
2018-01-15T06:48:19.129Z,4.00
2018-01-15T06:49:19.141Z,4.00
2018-01-15T06:50:19.151Z,0.00
2018-01-15T06:51:19.161Z,4.00
2018-01-15T06:52:19.174Z,4.00
2018-01-15T06:53:19.187Z,4.00
2018-01-15T06:54:19.200Z,4.00
2018-01-15T06:55:19.213Z,4.00
2018-01-15T06:56:19.222Z,8.00
2018-01-15T06:57:19.232Z,4.00
2018-01-15T06:58:19.246Z,8.00
2018-01-15T06:59:19.257Z,8.00
2018-01-15T07:00:19.271Z,12.00
2018-01-15T07:01:19.277Z,12.00
2018-01-15T07:02:19.288Z,12.00
2018-01-15T07:03:19.302Z,16.00
2018-01-15T07:04:19.318Z,16.00
2018-01-15T07:05:19.323Z,16.00
2018-01-15T07:06:19.339Z,16.00
2018-01-15T07:07:19.350Z,20.00
2018-01-15T07:08:19.359Z,20.00
2018-01-15T07:09:19.374Z,20.00
2018-01-15T07:10:19.394Z,20.00
2018-01-15T07:11:19.397Z,24.00
2018-01-15T07:12:19.413Z,28.00
2018-01-15T07:13:19.424Z,28.00
2018-01-15T07:14:19.434Z,28.00
2018-01-15T07:15:19.447Z,32.00
2018-01-15T07:16:19.458Z,32.00
2018-01-15T07:17:19.466Z,40.00
2018-01-15T07:18:19.481Z,48.00
2018-01-15T07:19:19.496Z,56.00
2018-01-15T07:20:19.508Z,64.00
2018-01-15T07:21:19.521Z,68.00
2018-01-15T07:22:19.527Z,80.00
2018-01-15T07:23:19.542Z,96.00
2018-01-15T07:24:19.554Z,116.00
2018-01-15T07:25:19.562Z,120.00
2018-01-15T07:26:19.572Z,144.00
2018-01-15T07:27:19.588Z,160.00
2018-01-15T07:28:19.598Z,176.00
2018-01-15T07:29:19.609Z,200.00
2018-01-15T07:30:19.631Z,224.00
2018-01-15T07:31:19.643Z,248.00
2018-01-15T07:32:19.649Z,276.00
2018-01-15T07:33:19.658Z,300.00
2018-01-15T07:34:19.673Z,324.00
2018-01-15T07:35:19.686Z,348.00
2018-01-15T07:36:19.692Z,380.00
2018-01-15T07:37:19.705Z,416.00
2018-01-15T07:38:19.717Z,452.00
2018-01-15T07:39:19.735Z,496.00
2018-01-15T07:40:19.743Z,548.00
2018-01-15T07:41:19.756Z,612.00
2018-01-15T07:42:19.764Z,684.00
2018-01-15T07:43:19.786Z,748.00
2018-01-15T07:44:19.789Z,792.00
2018-01-15T07:45:19.804Z,828.00
2018-01-15T07:46:19.814Z,856.00
2018-01-15T07:47:19.822Z,904.00
2018-01-15T07:48:19.837Z,952.00
2018-01-15T07:49:19.863Z,1004.00
2018-01-15T07:50:19.878Z,1080.00
2018-01-15T07:51:19.880Z,1140.00
2018-01-15T07:52:19.886Z,1220.00
2018-01-15T07:53:19.894Z,1264.00
2018-01-15T07:54:19.908Z,1296.00
2018-01-15T07:55:19.920Z,1340.00
2018-01-15T07:56:19.937Z,1396.00
2018-01-15T07:57:19.945Z,1472.00
2018-01-15T07:58:19.957Z,1588.00
2018-01-15T07:59:20.022Z,1704.00
2018-01-15T08:00:19.986Z,1848.00
2018-01-15T08:01:19.995Z,2060.00
2018-01-15T08:02:20.006Z,2292.00
2018-01-15T08:03:20.023Z,2448.00
2018-01-15T08:04:20.033Z,2620.00
2018-01-15T08:05:20.041Z,2672.00
2018-01-15T08:06:20.057Z,2720.00
2018-01-15T08:07:20.064Z,2812.00
2018-01-15T08:08:20.076Z,2968.00
2018-01-15T08:09:20.090Z,3012.00
2018-01-15T08:10:20.104Z,3160.00
2018-01-15T08:11:20.113Z,3320.00
2018-01-15T08:12:20.138Z,3516.00
2018-01-15T08:13:20.135Z,3752.00
2018-01-15T08:14:20.150Z,4092.00
2018-01-15T08:15:20.165Z,4328.00
2018-01-15T08:16:20.180Z,4684.00
2018-01-15T08:17:20.188Z,4640.00
2018-01-15T08:18:20.198Z,4720.00
2018-01-15T08:19:20.224Z,4736.00
2018-01-15T08:20:20.226Z,4928.00
2018-01-15T08:21:20.236Z,5180.00
2018-01-15T08:22:20.252Z,5244.00
2018-01-15T08:23:20.267Z,5612.00
2018-01-15T08:24:20.279Z,5824.00
2018-01-15T08:25:20.307Z,5700.00
2018-01-15T08:26:20.306Z,6196.00
2018-01-15T08:27:20.314Z,6188.00
2018-01-15T08:28:20.331Z,6280.00
2018-01-15T08:29:20.345Z,5876.00
2018-01-15T08:30:20.362Z,5868.00
2018-01-15T08:31:20.376Z,5468.00
2018-01-15T08:32:20.399Z,4536.00
2018-01-15T08:33:20.399Z,4036.00
2018-01-15T08:34:20.437Z,3620.00
2018-01-15T08:35:20.426Z,3368.00
2018-01-15T08:36:20.442Z,3276.00
2018-01-15T08:37:20.456Z,3480.00
2018-01-15T08:38:20.464Z,4044.00
2018-01-15T08:39:20.481Z,4700.00
2018-01-15T08:40:20.496Z,5716.00
2018-01-15T08:41:20.510Z,6324.00
2018-01-15T08:42:20.521Z,6928.00
2018-01-15T08:43:20.535Z,7320.00
2018-01-15T08:44:20.554Z,7556.00
2018-01-15T08:45:20.560Z,7776.00
2018-01-15T08:46:20.581Z,7820.00
2018-01-15T08:47:20.593Z,7856.00
2018-01-15T08:48:20.601Z,7768.00
2018-01-15T08:49:20.615Z,7720.00
2018-01-15T08:50:20.631Z,7156.00
2018-01-15T08:51:20.646Z,7132.00
2018-01-15T08:52:20.656Z,6968.00
2018-01-15T08:53:20.670Z,7460.00
2018-01-15T08:54:20.686Z,7456.00
2018-01-15T08:55:20.701Z,7800.00
2018-01-15T08:56:20.711Z,7992.00
2018-01-15T08:57:20.730Z,8108.00
2018-01-15T08:58:20.744Z,7772.00
2018-01-15T08:59:20.754Z,8264.00
2018-01-15T09:00:20.768Z,8036.00
2018-01-15T09:01:20.782Z,7380.00
2018-01-15T09:02:20.800Z,6768.00
2018-01-15T09:03:20.807Z,6396.00
2018-01-15T09:04:20.822Z,5940.00
2018-01-15T09:05:20.839Z,5436.00
2018-01-15T09:06:20.852Z,5312.00
2018-01-15T09:07:20.863Z,5548.00
2018-01-15T09:08:20.877Z,5488.00
2018-01-15T09:09:20.891Z,5516.00
2018-01-15T09:10:20.901Z,5512.00
2018-01-15T09:11:20.916Z,5516.00
2018-01-15T09:12:20.931Z,5756.00
2018-01-15T09:13:20.945Z,6120.00
2018-01-15T09:14:20.956Z,6280.00
2018-01-15T09:15:20.973Z,5392.00
2018-01-15T09:16:20.989Z,5216.00
2018-01-15T09:17:20.996Z,4904.00
2018-01-15T09:18:21.030Z,4608.00
2018-01-15T09:19:21.031Z,4160.00
2018-01-15T09:20:21.035Z,4040.00
2018-01-15T09:21:21.067Z,4364.00
2018-01-15T09:22:21.069Z,4520.00
2018-01-15T09:23:21.086Z,5100.00
2018-01-15T09:24:21.098Z,5520.00
2018-01-15T09:25:21.106Z,5548.00
2018-01-15T09:26:21.117Z,5304.00
2018-01-15T09:27:21.133Z,6124.00
2018-01-15T09:28:21.147Z,6308.00
2018-01-15T09:29:21.156Z,6220.00
2018-01-15T09:30:21.171Z,5952.00
2018-01-15T09:31:21.199Z,6320.00
2018-01-15T09:32:21.196Z,6896.00
2018-01-15T09:33:21.211Z,7024.00
2018-01-15T09:34:21.278Z,6748.00
2018-01-15T09:35:21.238Z,6512.00
2018-01-15T09:36:21.253Z,6712.00
2018-01-15T09:37:21.265Z,7056.00
2018-01-15T09:38:21.278Z,7124.00
2018-01-15T09:39:21.294Z,7336.00
2018-01-15T09:40:21.311Z,7672.00
2018-01-15T09:41:21.318Z,7444.00
2018-01-15T09:42:21.333Z,7288.00
2018-01-15T09:43:21.346Z,7280.00
2018-01-15T09:44:21.361Z,7516.00
2018-01-15T09:45:21.372Z,7508.00
2018-01-15T09:46:21.389Z,7536.00
2018-01-15T09:47:21.400Z,7448.00
2018-01-15T09:48:21.413Z,7364.00
2018-01-15T09:49:21.426Z,7264.00
2018-01-15T09:50:21.449Z,7632.00
2018-01-15T09:51:21.457Z,7312.00
2018-01-15T09:52:21.470Z,7140.00
2018-01-15T09:53:21.484Z,6912.00
2018-01-15T09:54:21.498Z,6332.00
2018-01-15T09:55:21.518Z,6432.00
2018-01-15T09:56:21.531Z,6492.00
2018-01-15T09:57:21.543Z,6560.00
2018-01-15T09:58:21.552Z,7164.00
2018-01-15T09:59:21.572Z,7224.00
2018-01-15T10:00:21.582Z,6816.00
2018-01-15T10:01:21.602Z,6588.00
2018-01-15T10:02:21.607Z,6968.00
2018-01-15T10:03:21.634Z,7232.00
2018-01-15T10:04:21.646Z,7420.00
2018-01-15T10:05:21.651Z,7612.00
2018-01-15T10:06:21.668Z,7172.00
2018-01-15T10:07:21.683Z,6644.00
2018-01-15T10:08:21.697Z,6772.00
2018-01-15T10:09:21.705Z,7236.00
2018-01-15T10:10:21.722Z,7016.00
2018-01-15T10:11:21.738Z,7020.00
2018-01-15T10:12:21.749Z,7148.00
2018-01-15T10:13:21.764Z,6932.00
2018-01-15T10:14:21.785Z,6960.00
2018-01-15T10:15:21.800Z,6828.00
2018-01-15T10:16:21.811Z,6132.00
2018-01-15T10:17:21.824Z,6392.00
2018-01-15T10:18:21.835Z,6252.00
2018-01-15T10:19:21.856Z,6064.00
2018-01-15T10:20:21.864Z,5404.00
2018-01-15T10:21:21.879Z,5704.00
2018-01-15T10:22:21.896Z,6024.00
2018-01-15T10:23:21.908Z,6316.00
2018-01-15T10:24:21.927Z,6308.00
2018-01-15T10:25:21.933Z,6732.00
2018-01-15T10:26:21.948Z,6652.00
2018-01-15T10:27:21.968Z,7044.00
2018-01-15T10:28:21.982Z,7376.00
2018-01-15T10:29:21.993Z,7472.00
2018-01-15T10:30:22.080Z,7092.00
2018-01-15T10:31:22.035Z,7080.00
2018-01-15T10:32:22.047Z,6776.00
2018-01-15T10:33:22.049Z,7244.00
2018-01-15T10:34:22.069Z,7404.00
2018-01-15T10:35:22.091Z,7032.00
2018-01-15T10:36:22.093Z,6352.00
2018-01-15T10:37:22.110Z,6144.00
2018-01-15T10:38:22.121Z,6352.00
2018-01-15T10:39:22.134Z,6340.00
2018-01-15T10:40:22.153Z,6488.00
2018-01-15T10:41:22.168Z,6280.00
2018-01-15T10:42:22.177Z,5796.00
2018-01-15T10:43:22.204Z,5692.00
2018-01-15T10:44:22.209Z,5964.00
2018-01-15T10:45:22.220Z,5660.00
2018-01-15T10:46:22.236Z,5352.00
2018-01-15T10:47:22.249Z,5196.00
2018-01-15T10:48:22.318Z,5792.00
2018-01-15T10:49:22.274Z,5652.00
2018-01-15T10:50:22.290Z,5896.00
2018-01-15T10:51:22.309Z,5716.00
2018-01-15T10:52:22.318Z,5776.00
2018-01-15T10:53:22.332Z,5896.00
2018-01-15T10:54:22.344Z,6288.00
2018-01-15T10:55:22.371Z,6600.00
2018-01-15T10:56:22.376Z,6808.00
2018-01-15T10:57:22.394Z,6988.00
2018-01-15T10:58:22.407Z,7124.00
2018-01-15T10:59:22.418Z,7460.00
2018-01-15T11:00:22.431Z,7744.00
2018-01-15T11:01:22.444Z,7712.00
2018-01-15T11:02:22.459Z,7268.00
2018-01-15T11:03:22.472Z,7268.00
2018-01-15T11:04:22.488Z,7336.00
2018-01-15T11:05:22.500Z,7812.00
2018-01-15T11:06:22.513Z,7492.00
2018-01-15T11:07:22.528Z,7572.00
2018-01-15T11:08:22.541Z,7476.00
2018-01-15T11:09:22.557Z,7168.00
2018-01-15T11:10:22.575Z,7240.00
2018-01-15T11:11:22.583Z,7448.00
2018-01-15T11:12:22.597Z,7260.00
2018-01-15T11:13:22.614Z,7048.00
2018-01-15T11:14:22.624Z,7012.00
2018-01-15T11:15:22.644Z,6820.00
2018-01-15T11:16:22.670Z,6896.00
2018-01-15T11:17:22.683Z,6796.00
2018-01-15T11:18:22.720Z,7012.00
2018-01-15T11:19:22.695Z,6880.00
2018-01-15T11:20:22.709Z,7100.00
2018-01-15T11:21:22.722Z,7048.00
2018-01-15T11:22:22.733Z,7092.00
2018-01-15T11:23:22.751Z,7220.00
2018-01-15T11:24:22.767Z,7676.00
2018-01-15T11:25:22.785Z,7520.00
2018-01-15T11:26:22.791Z,7864.00
2018-01-15T11:27:22.823Z,7996.00
2018-01-15T11:28:22.820Z,7892.00
2018-01-15T11:29:22.835Z,7956.00
2018-01-15T11:30:22.850Z,7952.00
2018-01-15T11:31:22.865Z,8272.00
2018-01-15T11:32:22.882Z,8440.00
2018-01-15T11:33:22.900Z,8340.00
2018-01-15T11:34:22.903Z,8332.00
2018-01-15T11:35:22.917Z,8296.00
2018-01-15T11:36:22.937Z,8180.00
2018-01-15T11:37:22.960Z,8132.00
2018-01-15T11:38:22.962Z,7992.00
2018-01-15T11:39:22.981Z,8040.00
2018-01-15T11:40:22.992Z,7520.00
2018-01-15T11:41:23.003Z,7260.00
2018-01-15T11:42:23.018Z,6228.00
2018-01-15T11:43:23.037Z,5716.00
2018-01-15T11:44:23.047Z,5584.00
2018-01-15T11:45:23.064Z,6452.00
2018-01-15T11:46:23.075Z,6184.00
2018-01-15T11:47:23.090Z,6036.00
2018-01-15T11:48:23.100Z,6008.00
2018-01-15T11:49:23.125Z,5604.00
2018-01-15T11:50:23.134Z,5024.00
2018-01-15T11:51:23.146Z,5236.00
2018-01-15T11:52:23.161Z,4764.00
2018-01-15T11:53:23.175Z,4120.00
2018-01-15T11:54:23.186Z,3964.00
2018-01-15T11:55:23.215Z,4120.00
2018-01-15T11:56:23.227Z,3668.00
2018-01-15T11:57:23.233Z,4076.00
2018-01-15T11:58:23.241Z,4636.00
2018-01-15T11:59:23.260Z,4092.00
2018-01-15T12:00:23.286Z,3808.00
2018-01-15T12:01:23.288Z,3468.00
2018-01-15T12:02:23.300Z,3544.00
2018-01-15T12:03:23.317Z,4156.00
2018-01-15T12:04:23.327Z,3396.00
2018-01-15T12:05:23.340Z,3248.00
2018-01-15T12:06:23.355Z,3340.00
2018-01-15T12:07:23.371Z,3084.00
2018-01-15T12:08:23.382Z,3044.00
2018-01-15T12:09:23.397Z,3288.00
2018-01-15T12:10:23.410Z,3052.00
2018-01-15T12:11:23.428Z,3300.00
2018-01-15T12:12:23.446Z,2600.00
2018-01-15T12:13:23.451Z,2556.00
2018-01-15T12:14:23.465Z,2480.00
2018-01-15T12:15:23.477Z,2140.00
2018-01-15T12:16:23.499Z,2216.00
2018-01-15T12:17:23.513Z,2172.00
2018-01-15T12:18:23.519Z,2128.00
2018-01-15T12:19:23.534Z,1996.00
2018-01-15T12:20:23.547Z,1892.00
2018-01-15T12:21:23.559Z,2072.00
2018-01-15T12:22:23.575Z,1840.00
2018-01-15T12:23:23.593Z,1820.00
2018-01-15T12:24:23.600Z,2008.00
2018-01-15T12:25:23.614Z,2136.00
2018-01-15T12:26:23.628Z,2192.00
2018-01-15T12:27:23.643Z,2144.00
2018-01-15T12:28:23.656Z,2096.00
2018-01-15T12:29:23.669Z,2004.00
2018-01-15T12:30:23.684Z,2024.00
2018-01-15T12:31:23.700Z,2012.00
2018-01-15T12:32:23.714Z,1628.00
2018-01-15T12:33:23.723Z,1544.00
2018-01-15T12:34:23.736Z,1428.00
2018-01-15T12:35:23.749Z,1380.00
2018-01-15T12:36:23.764Z,1432.00
2018-01-15T12:37:23.784Z,1492.00
2018-01-15T12:38:23.791Z,1572.00
2018-01-15T12:39:23.807Z,1772.00
2018-01-15T12:40:23.820Z,1800.00
2018-01-15T12:41:23.832Z,1804.00
2018-01-15T12:42:23.853Z,1896.00
2018-01-15T12:43:23.863Z,1784.00
2018-01-15T12:44:23.880Z,1864.00
2018-01-15T12:45:23.887Z,1980.00
2018-01-15T12:46:23.905Z,2124.00